sensor_id;sensor_type;location;lat;lon;timestamp;pressure;altitude;pressure_sealevel;temperature;humidity
60725;BME280;59881;36.722;-4.462;2023-10-31T00:01:15;100412.50;;;13.93;52.48
60725;BME280;59881;36.722;-4.462;2023-10-31T00:03:40;100683.91;;;15.57;52.44
60725;BME280;59881;36.722;-4.462;2023-10-31T00:06:08;100791.91;;;16.18;52.45
60725;BME280;59881;36.722;-4.462;2023-10-31T00:08:33;100812.50;;;16.26;52.87
60725;BME280;59881;36.722;-4.462;2023-10-31T00:10:59;100805.47;;;16.15;52.92
60725;BME280;59881;36.722;-4.462;2023-10-31T00:13:24;100562.56;;;14.67;53.12
60725;BME280;59881;36.722;-4.462;2023-10-31T00:15:50;100744.53;;;15.83;53.26
60725;BME280;59881;36.722;-4.462;2023-10-31T00:18:15;100811.94;;;16.22;53.48
60725;BME280;59881;36.722;-4.462;2023-10-31T00:20:41;100682.59;;;15.42;53.53
60725;BME280;59881;36.722;-4.462;2023-10-31T00:23:06;100756.56;;;15.87;53.43
60725;BME280;59881;36.722;-4.462;2023-10-31T00:25:32;100734.00;;;15.71;53.52
60725;BME280;59881;36.722;-4.462;2023-10-31T00:27:57;100798.19;;;16.07;53.64
60725;BME280;59881;36.722;-4.462;2023-10-31T00:30:23;100823.41;;;16.23;53.74
60725;BME280;59881;36.722;-4.462;2023-10-31T00:32:48;100638.00;;;15.05;53.63
60725;BME280;59881;36.722;-4.462;2023-10-31T00:35:14;100564.28;;;14.68;53.74
60725;BME280;59881;36.722;-4.462;2023-10-31T00:37:40;100812.91;;;16.21;53.86
60725;BME280;59881;36.722;-4.462;2023-10-31T00:40:07;100742.22;;;15.68;53.87
60725;BME280;59881;36.722;-4.462;2023-10-31T00:42:32;100374.91;;;13.36;53.75
60725;BME280;59881;36.722;-4.462;2023-10-31T00:44:59;100827.97;;;16.11;54.21
60725;BME280;59881;36.722;-4.462;2023-10-31T00:47:24;100822.66;;;16.11;54.24
60725;BME280;59881;36.722;-4.462;2023-10-31T00:49:50;100732.53;;;15.58;54.09
60725;BME280;59881;36.722;-4.462;2023-10-31T00:52:18;100874.28;;;16.08;54.31
60725;BME280;59881;36.722;-4.462;2023-10-31T00:54:44;100774.56;;;15.73;54.26
60725;BME280;59881;36.722;-4.462;2023-10-31T00:57:09;100822.94;;;16.08;54.39
60725;BME280;59881;36.722;-4.462;2023-10-31T00:59:35;100840.84;;;16.06;54.39
60725;BME280;59881;36.722;-4.462;2023-10-31T01:02:00;100200.41;;;12.18;54.07
60725;BME280;59881;36.722;-4.462;2023-10-31T01:04:26;100813.97;;;15.99;54.41
60725;BME280;59881;36.722;-4.462;2023-10-31T01:06:51;100791.91;;;15.78;54.72
60725;BME280;59881;36.722;-4.462;2023-10-31T01:09:17;100764.28;;;15.59;54.69
60725;BME280;59881;36.722;-4.462;2023-10-31T01:11:42;100732.91;;;15.43;54.76
60725;BME280;59881;36.722;-4.462;2023-10-31T01:14:08;100770.16;;;15.63;54.88
60725;BME280;59881;36.722;-4.462;2023-10-31T01:16:33;100736.41;;;15.44;54.79
60725;BME280;59881;36.722;-4.462;2023-10-31T01:18:59;100735.28;;;15.46;55.06
60725;BME280;59881;36.722;-4.462;2023-10-31T01:21:25;100808.91;;;15.96;55.15
60725;BME280;59881;36.722;-4.462;2023-10-31T01:23:50;100809.34;;;16.01;55.13
60725;BME280;59881;36.722;-4.462;2023-10-31T01:26:16;100727.34;;;15.56;54.90
60725;BME280;59881;36.722;-4.462;2023-10-31T01:28:41;100807.97;;;16.07;54.99
60725;BME280;59881;36.722;-4.462;2023-10-31T01:31:07;100813.28;;;16.07;54.95
60725;BME280;59881;36.722;-4.462;2023-10-31T01:33:33;100808.66;;;16.09;54.88
60725;BME280;59881;36.722;-4.462;2023-10-31T01:35:59;100806.00;;;16.09;54.86
60725;BME280;59881;36.722;-4.462;2023-10-31T01:38:24;100802.53;;;16.08;54.89
60725;BME280;59881;36.722;-4.462;2023-10-31T01:40:50;100803.50;;;16.07;55.00
60725;BME280;59881;36.722;-4.462;2023-10-31T01:43:35;100785.56;;;15.90;55.27
60725;BME280;59881;36.722;-4.462;2023-10-31T01:46:01;100718.53;;;15.46;54.99
60725;BME280;59881;36.722;-4.462;2023-10-31T01:48:32;100773.91;;;15.81;55.26
60725;BME280;59881;36.722;-4.462;2023-10-31T01:50:59;100801.91;;;15.95;55.20
60725;BME280;59881;36.722;-4.462;2023-10-31T01:53:27;100737.38;;;15.01;55.38
60725;BME280;59881;36.722;-4.462;2023-10-31T01:55:56;100818.13;;;15.92;55.42
60725;BME280;59881;36.722;-4.462;2023-10-31T01:58:25;100835.03;;;15.91;55.63
60725;BME280;59881;36.722;-4.462;2023-10-31T02:00:54;100625.66;;;14.63;55.31
60725;BME280;59881;36.722;-4.462;2023-10-31T02:03:20;100682.38;;;15.03;55.82
60725;BME280;59881;36.722;-4.462;2023-10-31T02:05:46;100825.94;;;15.93;55.51
60725;BME280;59881;36.722;-4.462;2023-10-31T02:08:12;100839.25;;;15.93;55.81
60725;BME280;59881;36.722;-4.462;2023-10-31T02:10:37;100389.13;;;13.35;55.61
60725;BME280;59881;36.722;-4.462;2023-10-31T02:13:16;100689.31;;;15.15;55.94
60725;BME280;59881;36.722;-4.462;2023-10-31T02:15:43;100740.16;;;15.41;56.03
60725;BME280;59881;36.722;-4.462;2023-10-31T02:18:08;100777.16;;;15.64;56.43
60725;BME280;59881;36.722;-4.462;2023-10-31T02:20:35;100795.41;;;15.78;56.52
60725;BME280;59881;36.722;-4.462;2023-10-31T02:23:02;100785.78;;;15.77;56.59
60725;BME280;59881;36.722;-4.462;2023-10-31T02:25:27;100776.09;;;15.76;56.78
60725;BME280;59881;36.722;-4.462;2023-10-31T02:27:53;100739.25;;;15.52;56.76
60725;BME280;59881;36.722;-4.462;2023-10-31T02:30:19;100728.47;;;15.53;56.85
60725;BME280;59881;36.722;-4.462;2023-10-31T02:32:45;100630.41;;;14.90;56.61
60725;BME280;59881;36.722;-4.462;2023-10-31T02:35:10;100156.13;;;12.11;56.41
60725;BME280;59881;36.722;-4.462;2023-10-31T02:37:36;100808.03;;;15.86;56.52
60725;BME280;59881;36.722;-4.462;2023-10-31T02:40:02;100751.25;;;15.87;56.43
60725;BME280;59881;36.722;-4.462;2023-10-31T02:42:28;100821.19;;;15.87;56.40
60725;BME280;59881;36.722;-4.462;2023-10-31T02:44:53;100746.09;;;15.85;56.37
60725;BME280;59881;36.722;-4.462;2023-10-31T02:47:19;100740.22;;;15.82;56.50
60725;BME280;59881;36.722;-4.462;2023-10-31T02:49:45;100444.22;;;14.04;56.51
60725;BME280;59881;36.722;-4.462;2023-10-31T02:52:11;100315.44;;;13.19;56.80
60725;BME280;59881;36.722;-4.462;2023-10-31T02:54:36;100626.13;;;14.99;56.90
60725;BME280;59881;36.722;-4.462;2023-10-31T02:57:02;100274.09;;;12.97;56.76
60725;BME280;59881;36.722;-4.462;2023-10-31T02:59:28;100399.25;;;13.72;56.92
60725;BME280;59881;36.722;-4.462;2023-10-31T03:01:56;100622.34;;;15.02;56.80
60725;BME280;59881;36.722;-4.462;2023-10-31T03:04:22;100715.66;;;15.59;57.03
60725;BME280;59881;36.722;-4.462;2023-10-31T03:06:48;100814.88;;;15.67;57.26
60725;BME280;59881;36.722;-4.462;2023-10-31T03:09:14;100759.50;;;15.84;56.93
60725;BME280;59881;36.722;-4.462;2023-10-31T03:11:39;100360.25;;;13.00;56.98
60725;BME280;59881;36.722;-4.462;2023-10-31T03:14:05;100763.53;;;15.78;57.10
60725;BME280;59881;36.722;-4.462;2023-10-31T03:16:31;100750.41;;;15.77;57.35
60725;BME280;59881;36.722;-4.462;2023-10-31T03:18:56;100655.47;;;15.38;57.46
60725;BME280;59881;36.722;-4.462;2023-10-31T03:21:22;100587.13;;;14.90;57.40
60725;BME280;59881;36.722;-4.462;2023-10-31T03:23:49;100679.03;;;15.31;57.56
60725;BME280;59881;36.722;-4.462;2023-10-31T03:26:16;100760.44;;;15.73;57.63
60725;BME280;59881;36.722;-4.462;2023-10-31T03:28:43;100685.22;;;15.32;57.83
60725;BME280;59881;36.722;-4.462;2023-10-31T03:31:10;100690.66;;;15.30;57.86
60725;BME280;59881;36.722;-4.462;2023-10-31T03:33:36;100118.44;;;11.65;57.82
60725;BME280;59881;36.722;-4.462;2023-10-31T03:36:02;100718.03;;;15.31;57.94
60725;BME280;59881;36.722;-4.462;2023-10-31T03:38:27;100791.97;;;15.66;57.90
60725;BME280;59881;36.722;-4.462;2023-10-31T03:40:53;100704.91;;;15.08;57.93
60725;BME280;59881;36.722;-4.462;2023-10-31T03:43:19;100685.84;;;14.94;58.25
60725;BME280;59881;36.722;-4.462;2023-10-31T03:45:46;100782.47;;;15.64;58.21
60725;BME280;59881;36.722;-4.462;2023-10-31T03:48:12;100628.84;;;14.88;58.23
60725;BME280;59881;36.722;-4.462;2023-10-31T03:50:38;100412.00;;;13.57;58.01
60725;BME280;59881;36.722;-4.462;2023-10-31T03:53:03;100800.00;;;15.45;57.95
60725;BME280;59881;36.722;-4.462;2023-10-31T03:55:29;100554.16;;;14.41;57.89
60725;BME280;59881;36.722;-4.462;2023-10-31T03:57:56;100389.25;;;13.34;57.68
60725;BME280;59881;36.722;-4.462;2023-10-31T04:00:21;100739.94;;;15.23;57.79
60725;BME280;59881;36.722;-4.462;2023-10-31T04:02:47;100794.59;;;15.57;57.57
60725;BME280;59881;36.722;-4.462;2023-10-31T04:05:13;100428.25;;;13.53;57.70
60725;BME280;59881;36.722;-4.462;2023-10-31T04:07:39;100834.81;;;15.52;57.76
60725;BME280;59881;36.722;-4.462;2023-10-31T04:10:05;100771.38;;;15.80;57.68
60725;BME280;59881;36.722;-4.462;2023-10-31T04:12:31;100576.63;;;14.58;57.62
60725;BME280;59881;36.722;-4.462;2023-10-31T04:14:56;100129.91;;;11.87;57.63
60725;BME280;59881;36.722;-4.462;2023-10-31T04:17:22;100725.88;;;15.63;57.71
60725;BME280;59881;36.722;-4.462;2023-10-31T04:19:48;100433.16;;;13.78;57.73
60725;BME280;59881;36.722;-4.462;2023-10-31T04:22:13;100764.25;;;15.80;57.53
60725;BME280;59881;36.722;-4.462;2023-10-31T04:24:39;100725.09;;;15.51;57.62
60725;BME280;59881;36.722;-4.462;2023-10-31T04:27:06;100774.44;;;15.75;57.53
60725;BME280;59881;36.722;-4.462;2023-10-31T04:29:32;100671.66;;;15.04;57.63
60725;BME280;59881;36.722;-4.462;2023-10-31T04:31:58;100783.72;;;15.69;57.76
60725;BME280;59881;36.722;-4.462;2023-10-31T04:34:24;100090.16;;;11.33;57.54
60725;BME280;59881;36.722;-4.462;2023-10-31T04:36:49;100804.16;;;15.69;57.98
60725;BME280;59881;36.722;-4.462;2023-10-31T04:39:15;100745.88;;;15.37;57.96
60725;BME280;59881;36.722;-4.462;2023-10-31T04:41:40;100799.91;;;15.36;58.05
60725;BME280;59881;36.722;-4.462;2023-10-31T04:44:06;100747.81;;;15.35;58.27
60725;BME280;59881;36.722;-4.462;2023-10-31T04:46:32;100796.97;;;15.60;58.01
60725;BME280;59881;36.722;-4.462;2023-10-31T04:48:57;100709.91;;;15.02;58.35
60725;BME280;59881;36.722;-4.462;2023-10-31T04:51:23;100722.66;;;15.08;58.57
60725;BME280;59881;36.722;-4.462;2023-10-31T04:53:48;100796.00;;;15.61;58.68
60725;BME280;59881;36.722;-4.462;2023-10-31T04:56:15;100720.75;;;15.20;58.50
60725;BME280;59881;36.722;-4.462;2023-10-31T04:58:44;100586.44;;;14.46;58.47
60725;BME280;59881;36.722;-4.462;2023-10-31T05:01:11;100791.97;;;15.66;58.45
60725;BME280;59881;36.722;-4.462;2023-10-31T05:03:37;100791.16;;;15.66;58.28
60725;BME280;59881;36.722;-4.462;2023-10-31T05:06:04;100760.81;;;15.38;58.42
60725;BME280;59881;36.722;-4.462;2023-10-31T05:08:30;100770.47;;;15.39;58.45
60725;BME280;59881;36.722;-4.462;2023-10-31T05:10:57;100627.34;;;14.53;58.42
60725;BME280;59881;36.722;-4.462;2023-10-31T05:13:22;100807.91;;;15.66;58.64
60725;BME280;59881;36.722;-4.462;2023-10-31T05:15:48;100649.84;;;14.70;58.43
60725;BME280;59881;36.722;-4.462;2023-10-31T05:18:13;100651.28;;;14.63;58.52
60725;BME280;59881;36.722;-4.462;2023-10-31T05:20:39;100799.06;;;15.14;58.45
60725;BME280;59881;36.722;-4.462;2023-10-31T05:23:05;100819.25;;;15.68;58.49
60725;BME280;59881;36.722;-4.462;2023-10-31T05:25:30;100748.31;;;15.28;58.51
60725;BME280;59881;36.722;-4.462;2023-10-31T05:27:56;100712.69;;;15.00;58.34
60725;BME280;59881;36.722;-4.462;2023-10-31T05:30:21;100614.00;;;14.22;58.42
60725;BME280;59881;36.722;-4.462;2023-10-31T05:32:47;100717.03;;;15.01;58.59
60725;BME280;59881;36.722;-4.462;2023-10-31T05:35:13;100836.25;;;15.77;58.47
60725;BME280;59881;36.722;-4.462;2023-10-31T05:37:38;100482.88;;;13.75;58.37
60725;BME280;59881;36.722;-4.462;2023-10-31T05:40:04;100758.91;;;15.49;58.40
60725;BME280;59881;36.722;-4.462;2023-10-31T05:42:30;100800.16;;;15.75;58.61
60725;BME280;59881;36.722;-4.462;2023-10-31T05:44:55;100774.31;;;15.56;58.40
60725;BME280;59881;36.722;-4.462;2023-10-31T05:47:22;100662.63;;;14.86;58.35
60725;BME280;59881;36.722;-4.462;2023-10-31T05:49:48;100436.38;;;13.40;58.32
60725;BME280;59881;36.722;-4.462;2023-10-31T05:52:13;100122.41;;;11.48;58.19
60725;BME280;59881;36.722;-4.462;2023-10-31T05:54:39;100491.34;;;13.69;58.36
60725;BME280;59881;36.722;-4.462;2023-10-31T05:57:05;100802.72;;;15.65;58.36
60725;BME280;59881;36.722;-4.462;2023-10-31T05:59:31;100425.84;;;13.29;58.40
60725;BME280;59881;36.722;-4.462;2023-10-31T06:01:57;100431.31;;;13.37;58.22
60725;BME280;59881;36.722;-4.462;2023-10-31T06:04:23;100802.72;;;15.65;58.53
60725;BME280;59881;36.722;-4.462;2023-10-31T06:06:50;100805.25;;;15.66;58.53
60725;BME280;59881;36.722;-4.462;2023-10-31T06:09:16;100629.38;;;14.61;58.31
60725;BME280;59881;36.722;-4.462;2023-10-31T06:11:42;100808.63;;;15.68;58.43
60725;BME280;59881;36.722;-4.462;2023-10-31T06:14:08;100808.75;;;15.67;58.50
60725;BME280;59881;36.722;-4.462;2023-10-31T06:16:40;100811.56;;;15.65;58.39
60725;BME280;59881;36.722;-4.462;2023-10-31T06:19:07;100805.53;;;15.63;58.61
60725;BME280;59881;36.722;-4.462;2023-10-31T06:21:32;100802.00;;;15.63;58.49
60725;BME280;59881;36.722;-4.462;2023-10-31T06:23:58;100479.88;;;13.79;58.60
60725;BME280;59881;36.722;-4.462;2023-10-31T06:26:24;100357.13;;;12.95;58.49
60725;BME280;59881;36.722;-4.462;2023-10-31T06:28:49;100759.53;;;15.63;58.59
60725;BME280;59881;36.722;-4.462;2023-10-31T06:31:15;100803.84;;;15.62;58.33
60725;BME280;59881;36.722;-4.462;2023-10-31T06:33:40;100792.84;;;15.98;57.87
60725;BME280;59881;36.722;-4.462;2023-10-31T06:36:07;100789.94;;;16.01;57.92
60725;BME280;59881;36.722;-4.462;2023-10-31T06:38:33;100741.03;;;15.72;57.63
60725;BME280;59881;36.722;-4.462;2023-10-31T06:40:58;100775.06;;;15.98;57.61
60725;BME280;59881;36.722;-4.462;2023-10-31T06:43:24;100744.59;;;15.92;57.46
60725;BME280;59881;36.722;-4.462;2023-10-31T06:45:50;100780.06;;;15.91;57.63
60725;BME280;59881;36.722;-4.462;2023-10-31T06:48:15;100770.94;;;16.15;57.74
60725;BME280;59881;36.722;-4.462;2023-10-31T06:50:41;100772.59;;;16.16;57.52
60725;BME280;59881;36.722;-4.462;2023-10-31T06:53:06;100747.13;;;16.04;57.70
60725;BME280;59881;36.722;-4.462;2023-10-31T06:55:32;100747.25;;;16.02;57.62
60725;BME280;59881;36.722;-4.462;2023-10-31T06:57:58;100756.06;;;16.03;57.76
60725;BME280;59881;36.722;-4.462;2023-10-31T07:00:23;100767.41;;;16.05;57.83
60725;BME280;59881;36.722;-4.462;2023-10-31T07:02:49;100772.72;;;16.05;57.88
60725;BME280;59881;36.722;-4.462;2023-10-31T07:05:14;100748.34;;;15.90;57.70
60725;BME280;59881;36.722;-4.462;2023-10-31T07:07:41;100820.69;;;16.03;57.92
60725;BME280;59881;36.722;-4.462;2023-10-31T07:10:07;100758.56;;;15.95;57.87
60725;BME280;59881;36.722;-4.462;2023-10-31T07:12:33;100807.44;;;16.23;57.81
60725;BME280;59881;36.722;-4.462;2023-10-31T07:14:58;100875.72;;;16.22;57.85
60725;BME280;59881;36.722;-4.462;2023-10-31T07:17:25;100834.19;;;16.21;57.67
60725;BME280;59881;36.722;-4.462;2023-10-31T07:19:51;100795.91;;;15.93;57.68
60725;BME280;59881;36.722;-4.462;2023-10-31T07:22:16;100833.03;;;16.14;57.85
60725;BME280;59881;36.722;-4.462;2023-10-31T07:24:42;100854.41;;;16.43;57.72
60725;BME280;59881;36.722;-4.462;2023-10-31T07:27:09;100834.25;;;16.41;57.66
60725;BME280;59881;36.722;-4.462;2023-10-31T07:29:35;100812.41;;;16.37;57.38
60725;BME280;59881;36.722;-4.462;2023-10-31T07:32:00;100449.81;;;14.11;57.07
60725;BME280;59881;36.722;-4.462;2023-10-31T07:34:27;100881.59;;;16.66;57.05
60725;BME280;59881;36.722;-4.462;2023-10-31T07:36:53;100450.47;;;14.03;56.88
60725;BME280;59881;36.722;-4.462;2023-10-31T07:39:18;100698.38;;;15.13;56.95
60725;BME280;59881;36.722;-4.462;2023-10-31T07:41:44;100895.88;;;16.65;57.12
60725;BME280;59881;36.722;-4.462;2023-10-31T07:44:09;100588.81;;;14.49;57.18
60725;BME280;59881;36.722;-4.462;2023-10-31T07:46:35;100896.44;;;16.69;57.33
60725;BME280;59881;36.722;-4.462;2023-10-31T07:49:01;100885.66;;;16.61;57.36
60725;BME280;59881;36.722;-4.462;2023-10-31T07:51:26;100894.06;;;16.75;57.37
60725;BME280;59881;36.722;-4.462;2023-10-31T07:53:52;100747.66;;;15.88;57.26
60725;BME280;59881;36.722;-4.462;2023-10-31T07:56:18;100583.06;;;14.86;57.17
60725;BME280;59881;36.722;-4.462;2023-10-31T07:58:50;100836.63;;;16.44;57.15
60725;BME280;59881;36.722;-4.462;2023-10-31T08:01:17;100881.47;;;16.77;57.04
60725;BME280;59881;36.722;-4.462;2023-10-31T08:03:44;100903.53;;;16.99;57.08
60725;BME280;59881;36.722;-4.462;2023-10-31T08:06:10;100838.06;;;16.67;57.08
60725;BME280;59881;36.722;-4.462;2023-10-31T08:08:36;100548.78;;;15.04;56.86
60725;BME280;59881;36.722;-4.462;2023-10-31T08:11:02;100873.16;;;17.11;56.63
60725;BME280;59881;36.722;-4.462;2023-10-31T08:13:29;100900.19;;;17.36;56.38
60725;BME280;59881;36.722;-4.462;2023-10-31T08:15:54;100432.31;;;14.51;55.66
60725;BME280;59881;36.722;-4.462;2023-10-31T08:18:23;100911.38;;;17.49;55.65
60725;BME280;59881;36.722;-4.462;2023-10-31T08:20:48;100919.50;;;17.57;55.24
60725;BME280;59881;36.722;-4.462;2023-10-31T08:23:16;100893.16;;;17.54;55.07
60725;BME280;59881;36.722;-4.462;2023-10-31T08:25:43;100504.03;;;15.30;54.70
60725;BME280;59881;36.722;-4.462;2023-10-31T08:28:09;100533.09;;;15.61;54.33
60725;BME280;59881;36.722;-4.462;2023-10-31T08:30:34;100778.00;;;17.23;53.86
60725;BME280;59881;36.722;-4.462;2023-10-31T08:33:00;100887.59;;;17.95;53.00
60725;BME280;59881;36.722;-4.462;2023-10-31T08:35:26;100835.81;;;17.60;52.67
60725;BME280;59881;36.722;-4.462;2023-10-31T08:37:51;100846.72;;;17.67;52.39
60725;BME280;59881;36.722;-4.462;2023-10-31T08:40:17;100880.75;;;17.92;52.38
60725;BME280;59881;36.722;-4.462;2023-10-31T08:42:43;100904.41;;;18.05;52.08
60725;BME280;59881;36.722;-4.462;2023-10-31T08:45:09;100548.13;;;15.91;51.91
60725;BME280;59881;36.722;-4.462;2023-10-31T08:47:35;100952.69;;;18.02;52.18
60725;BME280;59881;36.722;-4.462;2023-10-31T08:50:00;100608.97;;;16.23;52.00
60725;BME280;59881;36.722;-4.462;2023-10-31T08:52:26;100974.13;;;18.10;51.98
60725;BME280;59881;36.722;-4.462;2023-10-31T08:54:51;100857.91;;;17.90;51.87
60725;BME280;59881;36.722;-4.462;2023-10-31T08:57:17;100860.25;;;18.03;51.93
60725;BME280;59881;36.722;-4.462;2023-10-31T08:59:42;100835.13;;;17.95;51.90
60725;BME280;59881;36.722;-4.462;2023-10-31T09:02:08;100848.38;;;18.15;51.96
60725;BME280;59881;36.722;-4.462;2023-10-31T09:04:34;100718.22;;;17.45;51.95
60725;BME280;59881;36.722;-4.462;2023-10-31T09:07:00;100857.69;;;18.38;52.17
60725;BME280;59881;36.722;-4.462;2023-10-31T09:09:26;100166.84;;;14.26;52.04
60725;BME280;59881;36.722;-4.462;2023-10-31T09:11:51;100860.06;;;18.59;52.10
60725;BME280;59881;36.722;-4.462;2023-10-31T09:14:17;100865.22;;;18.71;52.04
60725;BME280;59881;36.722;-4.462;2023-10-31T09:16:42;100869.38;;;18.83;51.89
60725;BME280;59881;36.722;-4.462;2023-10-31T09:19:08;100793.00;;;18.54;51.54
60725;BME280;59881;36.722;-4.462;2023-10-31T09:21:34;100805.63;;;18.80;51.42
60725;BME280;59881;36.722;-4.462;2023-10-31T09:23:59;100477.19;;;16.58;51.07
60725;BME280;59881;36.722;-4.462;2023-10-31T09:26:25;100857.06;;;19.44;50.61
60725;BME280;59881;36.722;-4.462;2023-10-31T09:28:51;100859.06;;;19.50;50.72
60725;BME280;59881;36.722;-4.462;2023-10-31T09:31:19;100851.84;;;19.42;50.44
60725;BME280;59881;36.722;-4.462;2023-10-31T09:33:47;100865.03;;;19.62;50.18
60725;BME280;59881;36.722;-4.462;2023-10-31T09:36:13;100874.13;;;19.69;50.39
60725;BME280;59881;36.722;-4.462;2023-10-31T09:38:40;100888.03;;;19.73;50.13
60725;BME280;59881;36.722;-4.462;2023-10-31T09:41:05;100868.16;;;19.57;50.23
60725;BME280;59881;36.722;-4.462;2023-10-31T09:43:31;100538.44;;;17.59;49.89
60725;BME280;59881;36.722;-4.462;2023-10-31T09:45:57;100573.63;;;17.81;49.91
60725;BME280;59881;36.722;-4.462;2023-10-31T09:48:24;100895.03;;;19.74;50.57
60725;BME280;59881;36.722;-4.462;2023-10-31T09:50:49;100826.16;;;19.23;50.53
60725;BME280;59881;36.722;-4.462;2023-10-31T09:53:16;100392.78;;;16.60;50.75
60725;BME280;59881;36.722;-4.462;2023-10-31T09:55:45;100963.22;;;19.42;51.41
60725;BME280;59881;36.722;-4.462;2023-10-31T09:58:11;100548.94;;;17.15;51.44
60725;BME280;59881;36.722;-4.462;2023-10-31T10:00:37;100656.66;;;17.76;51.80
60725;BME280;59881;36.722;-4.462;2023-10-31T10:03:07;100924.97;;;19.41;51.98
60725;BME280;59881;36.722;-4.462;2023-10-31T10:05:35;100905.53;;;19.31;52.16
60725;BME280;59881;36.722;-4.462;2023-10-31T10:08:01;100593.19;;;17.44;52.01
60725;BME280;59881;36.722;-4.462;2023-10-31T10:10:27;100936.19;;;19.63;51.75
60725;BME280;59881;36.722;-4.462;2023-10-31T10:12:55;100942.06;;;19.67;51.70
60725;BME280;59881;36.722;-4.462;2023-10-31T10:15:21;100917.19;;;19.48;51.25
60725;BME280;59881;36.722;-4.462;2023-10-31T10:17:51;100941.97;;;19.58;50.92
60725;BME280;59881;36.722;-4.462;2023-10-31T10:20:17;100928.03;;;19.47;51.05
60725;BME280;59881;36.722;-4.462;2023-10-31T10:22:43;100945.66;;;19.57;51.18
60725;BME280;59881;36.722;-4.462;2023-10-31T10:25:10;100939.09;;;19.52;51.27
60725;BME280;59881;36.722;-4.462;2023-10-31T10:27:44;100856.94;;;18.92;51.32
60725;BME280;59881;36.722;-4.462;2023-10-31T10:30:10;100891.03;;;18.98;51.58
60725;BME280;59881;36.722;-4.462;2023-10-31T10:32:36;100927.41;;;19.17;51.81
60725;BME280;59881;36.722;-4.462;2023-10-31T10:35:02;100900.19;;;18.95;51.74
60725;BME280;59881;36.722;-4.462;2023-10-31T10:37:27;100928.72;;;19.13;51.77
60725;BME280;59881;36.722;-4.462;2023-10-31T10:39:56;100918.91;;;19.13;51.63
60725;BME280;59881;36.722;-4.462;2023-10-31T10:42:45;100916.59;;;19.18;51.82
60725;BME280;59881;36.722;-4.462;2023-10-31T10:45:14;100931.69;;;19.28;51.85
60725;BME280;59881;36.722;-4.462;2023-10-31T10:47:47;100944.59;;;19.32;52.03
60725;BME280;59881;36.722;-4.462;2023-10-31T10:50:13;100681.25;;;17.70;51.56
60725;BME280;59881;36.722;-4.462;2023-10-31T10:52:42;100966.66;;;19.52;51.59
60725;BME280;59881;36.722;-4.462;2023-10-31T10:57:56;100987.34;;;19.86;50.90
60725;BME280;59881;36.722;-4.462;2023-10-31T11:00:25;100657.47;;;17.86;50.12
60725;BME280;59881;36.722;-4.462;2023-10-31T11:02:56;100933.19;;;19.48;50.46
60725;BME280;59881;36.722;-4.462;2023-10-31T11:05:23;100988.44;;;19.75;49.86
60725;BME280;59881;36.722;-4.462;2023-10-31T11:07:49;100973.97;;;19.50;49.88
60725;BME280;59881;36.722;-4.462;2023-10-31T11:10:17;100690.72;;;17.54;49.36
60725;BME280;59881;36.722;-4.462;2023-10-31T11:12:44;100990.41;;;19.37;49.17
60725;BME280;59881;36.722;-4.462;2023-10-31T11:15:14;100977.78;;;19.30;48.93
60725;BME280;59881;36.722;-4.462;2023-10-31T11:17:44;100960.34;;;19.17;49.36
60725;BME280;59881;36.722;-4.462;2023-10-31T11:20:13;100637.34;;;17.19;49.43
60725;BME280;59881;36.722;-4.462;2023-10-31T11:22:43;100924.59;;;18.83;50.03
60725;BME280;59881;36.722;-4.462;2023-10-31T11:25:13;100951.19;;;18.92;50.41
60725;BME280;59881;36.722;-4.462;2023-10-31T11:27:39;100925.72;;;18.70;50.72
60725;BME280;59881;36.722;-4.462;2023-10-31T11:30:08;100956.75;;;18.81;51.28
60725;BME280;59881;36.722;-4.462;2023-10-31T11:32:49;100943.66;;;18.88;51.46
60725;BME280;59881;36.722;-4.462;2023-10-31T11:35:17;100905.22;;;18.80;51.48
60725;BME280;59881;36.722;-4.462;2023-10-31T11:37:49;100907.81;;;18.90;51.80
60725;BME280;59881;36.722;-4.462;2023-10-31T11:40:26;100619.22;;;16.94;52.03
60725;BME280;59881;36.722;-4.462;2023-10-31T11:42:53;100856.34;;;18.80;52.35
60725;BME280;59881;36.722;-4.462;2023-10-31T11:45:40;100888.66;;;18.95;52.81
60725;BME280;59881;36.722;-4.462;2023-10-31T11:48:14;100860.53;;;18.73;53.29
60725;BME280;59881;36.722;-4.462;2023-10-31T11:50:40;100832.47;;;18.51;53.72
60725;BME280;59881;36.722;-4.462;2023-10-31T11:53:23;100531.84;;;16.80;53.54
60725;BME280;59881;36.722;-4.462;2023-10-31T11:55:49;100885.16;;;18.94;54.00
60725;BME280;59881;36.722;-4.462;2023-10-31T11:58:19;100887.69;;;18.96;54.17
60725;BME280;59881;36.722;-4.462;2023-10-31T12:00:46;100849.00;;;18.82;54.43
60725;BME280;59881;36.722;-4.462;2023-10-31T12:03:16;100856.16;;;18.81;54.22
60725;BME280;59881;36.722;-4.462;2023-10-31T12:05:51;100838.16;;;18.84;54.07
60725;BME280;59881;36.722;-4.462;2023-10-31T12:08:28;100835.72;;;18.90;53.68
60725;BME280;59881;36.722;-4.462;2023-10-31T12:13:31;100843.94;;;19.33;53.22
60725;BME280;59881;36.722;-4.462;2023-10-31T12:15:56;100836.25;;;19.56;52.75
60725;BME280;59881;36.722;-4.462;2023-10-31T12:18:22;100856.03;;;19.89;52.64
60725;BME280;59881;36.722;-4.462;2023-10-31T12:20:49;100746.50;;;19.45;51.86
60725;BME280;59881;36.722;-4.462;2023-10-31T12:23:15;100855.16;;;20.15;51.64
60725;BME280;59881;36.722;-4.462;2023-10-31T12:25:51;100874.31;;;20.44;51.11
60725;BME280;59881;36.722;-4.462;2023-10-31T12:28:18;100858.13;;;20.54;51.01
60725;BME280;59881;36.722;-4.462;2023-10-31T12:30:47;100848.81;;;20.66;50.66
60725;BME280;59881;36.722;-4.462;2023-10-31T12:33:14;100571.50;;;18.98;50.61
60725;BME280;59881;36.722;-4.462;2023-10-31T12:35:39;100850.34;;;20.77;50.34
60725;BME280;59881;36.722;-4.462;2023-10-31T12:38:06;100777.44;;;20.24;50.51
60725;BME280;59881;36.722;-4.462;2023-10-31T12:40:33;100814.94;;;20.33;50.69
60725;BME280;59881;36.722;-4.462;2023-10-31T12:42:59;100320.00;;;17.33;51.07